sensor_id;sensor_type;location;lat;lon;timestamp;pressure;altitude;pressure_sealevel;temperature;humidity
6343;BME280;3204;42.698;23.298;2023-07-13T00:01:13;95184.91;;;24.55;66.41
6343;BME280;3204;42.698;23.298;2023-07-13T00:03:38;95184.97;;;24.62;66.54
6343;BME280;3204;42.698;23.298;2023-07-13T00:06:07;95184.16;;;24.61;66.56
6343;BME280;3204;42.698;23.298;2023-07-13T00:08:34;95184.56;;;24.60;66.46
6343;BME280;3204;42.698;23.298;2023-07-13T00:11:03;95180.50;;;24.47;66.27
6343;BME280;3204;42.698;23.298;2023-07-13T00:13:30;95183.28;;;24.36;66.66
6343;BME280;3204;42.698;23.298;2023-07-13T00:15:57;95179.69;;;24.29;66.84
6343;BME280;3204;42.698;23.298;2023-07-13T00:18:23;95175.28;;;24.21;67.07
6343;BME280;3204;42.698;23.298;2023-07-13T00:20:49;95175.72;;;24.26;67.27
6343;BME280;3204;42.698;23.298;2023-07-13T00:23:14;95170.53;;;24.21;67.32
6343;BME280;3204;42.698;23.298;2023-07-13T00:25:40;95183.91;;;24.05;67.75
6343;BME280;3204;42.698;23.298;2023-07-13T00:28:06;95181.19;;;24.19;67.88
6343;BME280;3204;42.698;23.298;2023-07-13T00:30:31;95172.88;;;24.12;68.34
6343;BME280;3204;42.698;23.298;2023-07-13T00:32:57;95170.84;;;24.02;68.35
6343;BME280;3204;42.698;23.298;2023-07-13T00:35:23;95167.69;;;24.07;68.33
6343;BME280;3204;42.698;23.298;2023-07-13T00:37:48;95164.47;;;23.98;69.00
6343;BME280;3204;42.698;23.298;2023-07-13T00:40:15;95172.69;;;23.88;69.21
6343;BME280;3204;42.698;23.298;2023-07-13T00:42:40;95169.13;;;23.87;69.25
6343;BME280;3204;42.698;23.298;2023-07-13T00:47:41;95166.00;;;23.92;69.32
6343;BME280;3204;42.698;23.298;2023-07-13T00:50:12;95166.44;;;23.94;69.10
6343;BME280;3204;42.698;23.298;2023-07-13T00:52:42;95158.50;;;23.96;69.00
6343;BME280;3204;42.698;23.298;2023-07-13T00:55:08;95164.88;;;23.97;68.93
6343;BME280;3204;42.698;23.298;2023-07-13T00:57:34;95162.47;;;23.95;68.83
6343;BME280;3204;42.698;23.298;2023-07-13T01:00:03;95169.22;;;23.94;69.25
6343;BME280;3204;42.698;23.298;2023-07-13T01:02:30;95166.34;;;23.87;69.74
6343;BME280;3204;42.698;23.298;2023-07-13T01:04:56;95161.63;;;23.88;69.85
6343;BME280;3204;42.698;23.298;2023-07-13T01:07:21;95160.78;;;23.84;70.17
6343;BME280;3204;42.698;23.298;2023-07-13T01:09:47;95166.69;;;23.75;70.49
6343;BME280;3204;42.698;23.298;2023-07-13T01:12:12;95162.72;;;23.76;70.38
6343;BME280;3204;42.698;23.298;2023-07-13T01:14:39;95159.16;;;23.72;70.71
6343;BME280;3204;42.698;23.298;2023-07-13T01:17:04;95157.56;;;23.71;70.91
6343;BME280;3204;42.698;23.298;2023-07-13T01:19:36;95154.41;;;23.76;70.52
6343;BME280;3204;42.698;23.298;2023-07-13T01:22:04;95150.84;;;23.76;70.75
6343;BME280;3204;42.698;23.298;2023-07-13T01:24:38;95144.09;;;23.73;70.50
6343;BME280;3204;42.698;23.298;2023-07-13T01:27:05;95151.63;;;23.69;71.11
6343;BME280;3204;42.698;23.298;2023-07-13T01:29:32;95142.50;;;23.65;71.08
6343;BME280;3204;42.698;23.298;2023-07-13T01:31:58;95146.84;;;23.63;71.27
6343;BME280;3204;42.698;23.298;2023-07-13T01:34:26;95143.59;;;23.54;72.21
6343;BME280;3204;42.698;23.298;2023-07-13T01:36:51;95144.44;;;23.61;72.08
6343;BME280;3204;42.698;23.298;2023-07-13T01:39:21;95145.19;;;23.51;72.42
6343;BME280;3204;42.698;23.298;2023-07-13T01:41:47;95151.06;;;23.46;72.50
6343;BME280;3204;42.698;23.298;2023-07-13T01:44:13;95136.81;;;23.44;72.68
6343;BME280;3204;42.698;23.298;2023-07-13T01:46:38;95149.59;;;23.63;72.47
6343;BME280;3204;42.698;23.298;2023-07-13T01:49:03;95142.13;;;23.67;71.74
6343;BME280;3204;42.698;23.298;2023-07-13T01:51:29;95143.97;;;23.49;72.18
6343;BME280;3204;42.698;23.298;2023-07-13T01:53:54;95147.94;;;23.51;71.94
6343;BME280;3204;42.698;23.298;2023-07-13T01:56:20;95142.38;;;23.48;71.91
6343;BME280;3204;42.698;23.298;2023-07-13T01:58:46;95135.13;;;23.33;72.13
6343;BME280;3204;42.698;23.298;2023-07-13T02:01:11;95148.97;;;23.29;72.32
6343;BME280;3204;42.698;23.298;2023-07-13T02:03:37;95148.94;;;23.22;72.57
6343;BME280;3204;42.698;23.298;2023-07-13T02:06:02;95158.91;;;23.34;72.61
6343;BME280;3204;42.698;23.298;2023-07-13T02:08:28;95152.78;;;23.14;73.17
6343;BME280;3204;42.698;23.298;2023-07-13T02:10:54;95154.03;;;23.20;73.08
6343;BME280;3204;42.698;23.298;2023-07-13T02:13:19;95146.06;;;23.15;73.21
6343;BME280;3204;42.698;23.298;2023-07-13T02:15:45;95146.94;;;23.23;73.02
6343;BME280;3204;42.698;23.298;2023-07-13T02:18:11;95149.75;;;23.26;72.93
6343;BME280;3204;42.698;23.298;2023-07-13T02:20:36;95150.16;;;23.32;72.64
6343;BME280;3204;42.698;23.298;2023-07-13T02:23:01;95152.56;;;23.33;72.24
6343;BME280;3204;42.698;23.298;2023-07-13T02:25:27;95157.28;;;23.29;72.76
6343;BME280;3204;42.698;23.298;2023-07-13T02:27:53;95160.41;;;23.28;72.55
6343;BME280;3204;42.698;23.298;2023-07-13T02:30:18;95168.31;;;23.26;72.76
6343;BME280;3204;42.698;23.298;2023-07-13T02:32:44;95163.16;;;23.24;72.73
6343;BME280;3204;42.698;23.298;2023-07-13T02:35:10;95152.91;;;23.25;72.92
6343;BME280;3204;42.698;23.298;2023-07-13T02:37:35;95169.13;;;23.26;73.06
6343;BME280;3204;42.698;23.298;2023-07-13T02:40:01;95157.25;;;23.26;72.97
6343;BME280;3204;42.698;23.298;2023-07-13T02:42:33;95156.88;;;23.27;72.98
6343;BME280;3204;42.698;23.298;2023-07-13T02:44:58;95161.59;;;23.23;73.11
6343;BME280;3204;42.698;23.298;2023-07-13T02:47:24;95168.31;;;23.22;73.43
6343;BME280;3204;42.698;23.298;2023-07-13T02:49:49;95159.56;;;23.20;73.29
6343;BME280;3204;42.698;23.298;2023-07-13T02:52:15;95167.38;;;23.11;73.44
6343;BME280;3204;42.698;23.298;2023-07-13T02:54:41;95170.91;;;23.08;73.75
6343;BME280;3204;42.698;23.298;2023-07-13T02:57:06;95165.78;;;23.10;73.64
6343;BME280;3204;42.698;23.298;2023-07-13T02:59:32;95156.72;;;23.13;73.37
6343;BME280;3204;42.698;23.298;2023-07-13T03:01:57;95165.81;;;23.14;73.33
6343;BME280;3204;42.698;23.298;2023-07-13T03:04:23;95166.59;;;23.11;73.96
6343;BME280;3204;42.698;23.298;2023-07-13T03:06:48;95172.09;;;23.07;74.03
6343;BME280;3204;42.698;23.298;2023-07-13T03:09:14;95172.09;;;23.07;74.01
6343;BME280;3204;42.698;23.298;2023-07-13T03:11:39;95174.88;;;23.07;73.94
6343;BME280;3204;42.698;23.298;2023-07-13T03:14:05;95174.91;;;23.11;74.02
6343;BME280;3204;42.698;23.298;2023-07-13T03:16:30;95180.06;;;23.12;74.44
6343;BME280;3204;42.698;23.298;2023-07-13T03:18:55;95172.50;;;23.09;74.46
6343;BME280;3204;42.698;23.298;2023-07-13T03:21:21;95180.34;;;23.04;74.66
6343;BME280;3204;42.698;23.298;2023-07-13T03:23:47;95169.63;;;22.95;74.92
6343;BME280;3204;42.698;23.298;2023-07-13T03:26:15;95175.16;;;22.99;74.94
6343;BME280;3204;42.698;23.298;2023-07-13T03:28:41;95170.38;;;22.92;75.27
6343;BME280;3204;42.698;23.298;2023-07-13T03:31:10;95179.06;;;22.91;75.30
6343;BME280;3204;42.698;23.298;2023-07-13T03:33:36;95177.22;;;23.05;75.15
6343;BME280;3204;42.698;23.298;2023-07-13T03:36:03;95182.22;;;22.89;75.98
6343;BME280;3204;42.698;23.298;2023-07-13T03:38:29;95186.19;;;22.92;75.88
6343;BME280;3204;42.698;23.298;2023-07-13T03:40:54;95180.19;;;22.86;76.26
6343;BME280;3204;42.698;23.298;2023-07-13T03:43:19;95181.03;;;22.90;76.01
6343;BME280;3204;42.698;23.298;2023-07-13T03:45:46;95179.84;;;22.91;76.42
6343;BME280;3204;42.698;23.298;2023-07-13T03:48:11;95181.50;;;22.99;75.72
6343;BME280;3204;42.698;23.298;2023-07-13T03:50:37;95187.94;;;23.10;75.68
6343;BME280;3204;42.698;23.298;2023-07-13T03:53:03;95183.56;;;23.06;76.06
6343;BME280;3204;42.698;23.298;2023-07-13T03:55:29;95181.91;;;23.01;76.13
6343;BME280;3204;42.698;23.298;2023-07-13T03:57:59;95172.03;;;23.00;76.33
6343;BME280;3204;42.698;23.298;2023-07-13T04:00:25;95179.19;;;23.05;76.25
6343;BME280;3204;42.698;23.298;2023-07-13T04:02:51;95183.97;;;23.11;76.01
6343;BME280;3204;42.698;23.298;2023-07-13T04:05:16;95178.94;;;23.20;75.58
6343;BME280;3204;42.698;23.298;2023-07-13T04:07:42;95182.56;;;23.28;75.43
6343;BME280;3204;42.698;23.298;2023-07-13T04:10:08;95169.97;;;23.34;75.26
6343;BME280;3204;42.698;23.298;2023-07-13T04:12:33;95170.81;;;23.41;75.09
6343;BME280;3204;42.698;23.298;2023-07-13T04:14:59;95181.06;;;23.34;75.63
6343;BME280;3204;42.698;23.298;2023-07-13T04:17:24;95176.66;;;23.29;75.96
6343;BME280;3204;42.698;23.298;2023-07-13T04:19:50;95183.38;;;23.28;75.81
6343;BME280;3204;42.698;23.298;2023-07-13T04:22:15;95188.19;;;23.38;75.23
6343;BME280;3204;42.698;23.298;2023-07-13T04:24:41;95187.59;;;23.66;74.58
6343;BME280;3204;42.698;23.298;2023-07-13T04:27:07;95192.00;;;23.70;74.37
6343;BME280;3204;42.698;23.298;2023-07-13T04:29:32;95192.28;;;23.58;74.56
6343;BME280;3204;42.698;23.298;2023-07-13T04:31:58;95195.03;;;23.55;74.62
6343;BME280;3204;42.698;23.298;2023-07-13T04:34:23;95197.00;;;23.51;74.59
6343;BME280;3204;42.698;23.298;2023-07-13T04:36:49;95197.78;;;23.51;74.87
6343;BME280;3204;42.698;23.298;2023-07-13T04:39:15;95196.31;;;23.64;74.53
6343;BME280;3204;42.698;23.298;2023-07-13T04:41:40;95201.88;;;23.68;74.30
6343;BME280;3204;42.698;23.298;2023-07-13T04:44:06;95199.13;;;23.71;74.41
6343;BME280;3204;42.698;23.298;2023-07-13T04:46:31;95198.75;;;23.73;73.95
6343;BME280;3204;42.698;23.298;2023-07-13T04:48:57;95197.16;;;23.75;73.63
6343;BME280;3204;42.698;23.298;2023-07-13T04:51:23;95199.59;;;23.87;72.93
6343;BME280;3204;42.698;23.298;2023-07-13T04:53:49;95214.31;;;23.91;72.48
6343;BME280;3204;42.698;23.298;2023-07-13T04:56:14;95223.44;;;23.92;72.12
6343;BME280;3204;42.698;23.298;2023-07-13T04:58:40;95221.84;;;23.91;72.11
6343;BME280;3204;42.698;23.298;2023-07-13T05:01:06;95222.22;;;23.89;72.41
6343;BME280;3204;42.698;23.298;2023-07-13T05:03:32;95227.44;;;23.98;72.43
6343;BME280;3204;42.698;23.298;2023-07-13T05:06:03;95219.59;;;24.14;71.58
6343;BME280;3204;42.698;23.298;2023-07-13T05:08:29;95218.38;;;24.08;71.35
6343;BME280;3204;42.698;23.298;2023-07-13T05:10:55;95218.28;;;23.94;71.62
6343;BME280;3204;42.698;23.298;2023-07-13T05:13:21;95227.47;;;24.05;71.08
6343;BME280;3204;42.698;23.298;2023-07-13T05:15:55;95224.28;;;24.03;71.36
6343;BME280;3204;42.698;23.298;2023-07-13T05:18:21;95231.47;;;24.07;71.28
6343;BME280;3204;42.698;23.298;2023-07-13T05:20:46;95226.38;;;24.16;71.18
6343;BME280;3204;42.698;23.298;2023-07-13T05:23:12;95222.41;;;24.24;70.40
6343;BME280;3204;42.698;23.298;2023-07-13T05:25:38;95226.81;;;24.32;69.77
6343;BME280;3204;42.698;23.298;2023-07-13T05:28:04;95222.91;;;24.44;68.54
6343;BME280;3204;42.698;23.298;2023-07-13T05:30:29;95225.31;;;24.45;68.42
6343;BME280;3204;42.698;23.298;2023-07-13T05:32:55;95226.09;;;24.49;68.48
6343;BME280;3204;42.698;23.298;2023-07-13T05:35:20;95236.84;;;24.54;67.94
6343;BME280;3204;42.698;23.298;2023-07-13T05:37:45;95230.50;;;24.57;67.79
6343;BME280;3204;42.698;23.298;2023-07-13T05:40:11;95234.16;;;24.72;67.46
6343;BME280;3204;42.698;23.298;2023-07-13T05:42:36;95238.94;;;24.89;67.63
6343;BME280;3204;42.698;23.298;2023-07-13T05:45:02;95237.78;;;25.00;67.17
6343;BME280;3204;42.698;23.298;2023-07-13T05:47:28;95232.66;;;25.09;67.14
6343;BME280;3204;42.698;23.298;2023-07-13T05:49:53;95238.22;;;25.20;66.25
6343;BME280;3204;42.698;23.298;2023-07-13T05:52:19;95237.09;;;25.28;65.85
6343;BME280;3204;42.698;23.298;2023-07-13T05:54:44;95239.47;;;25.33;65.64
6343;BME280;3204;42.698;23.298;2023-07-13T05:57:10;95230.34;;;25.43;65.19
6343;BME280;3204;42.698;23.298;2023-07-13T05:59:35;95212.47;;;25.47;64.32
6343;BME280;3204;42.698;23.298;2023-07-13T06:02:01;95226.38;;;25.54;64.41
6343;BME280;3204;42.698;23.298;2023-07-13T06:04:26;95222.41;;;25.66;64.52
6343;BME280;3204;42.698;23.298;2023-07-13T06:06:52;95218.41;;;25.77;64.28
6343;BME280;3204;42.698;23.298;2023-07-13T06:09:18;95221.59;;;25.90;63.90
6343;BME280;3204;42.698;23.298;2023-07-13T06:11:43;95223.97;;;26.02;63.43
6343;BME280;3204;42.698;23.298;2023-07-13T06:14:09;95231.91;;;26.10;62.63
6343;BME280;3204;42.698;23.298;2023-07-13T06:16:34;95226.72;;;26.16;61.27
6343;BME280;3204;42.698;23.298;2023-07-13T06:19:00;95234.28;;;26.15;61.25
6343;BME280;3204;42.698;23.298;2023-07-13T06:21:26;95225.50;;;26.27;61.16
6343;BME280;3204;42.698;23.298;2023-07-13T06:23:52;95229.03;;;26.45;61.27
6343;BME280;3204;42.698;23.298;2023-07-13T06:26:20;95241.28;;;26.72;60.89
6343;BME280;3204;42.698;23.298;2023-07-13T06:28:46;95237.25;;;26.87;61.28
6343;BME280;3204;42.698;23.298;2023-07-13T06:31:12;95230.69;;;27.22;60.11
6343;BME280;3204;42.698;23.298;2023-07-13T06:33:39;95234.59;;;27.32;58.36
6343;BME280;3204;42.698;23.298;2023-07-13T06:36:06;95227.84;;;27.33;58.63
6343;BME280;3204;42.698;23.298;2023-07-13T06:38:32;95225.63;;;27.58;57.15
6343;BME280;3204;42.698;23.298;2023-07-13T06:40:58;95225.19;;;27.66;57.11
6343;BME280;3204;42.698;23.298;2023-07-13T06:43:24;95233.16;;;27.64;57.66
6343;BME280;3204;42.698;23.298;2023-07-13T06:45:50;95215.19;;;27.72;57.44
6343;BME280;3204;42.698;23.298;2023-07-13T06:48:17;95225.47;;;27.79;57.57
6343;BME280;3204;42.698;23.298;2023-07-13T06:50:42;95224.44;;;28.06;58.09
6343;BME280;3204;42.698;23.298;2023-07-13T06:53:09;95221.78;;;28.33;57.62
6343;BME280;3204;42.698;23.298;2023-07-13T06:55:34;95225.31;;;28.37;56.34
6343;BME280;3204;42.698;23.298;2023-07-13T06:58:00;95230.06;;;28.43;55.76
6343;BME280;3204;42.698;23.298;2023-07-13T07:00:26;95228.75;;;28.55;55.75
6343;BME280;3204;42.698;23.298;2023-07-13T07:02:51;95231.72;;;28.74;55.04
6343;BME280;3204;42.698;23.298;2023-07-13T07:05:16;95234.09;;;28.72;54.66
6343;BME280;3204;42.698;23.298;2023-07-13T07:07:42;95229.91;;;28.87;54.61
6343;BME280;3204;42.698;23.298;2023-07-13T07:10:08;95225.28;;;29.07;53.33
6343;BME280;3204;42.698;23.298;2023-07-13T07:12:33;95231.19;;;29.13;53.53
6343;BME280;3204;42.698;23.298;2023-07-13T07:14:59;95225.16;;;29.18;53.07
6343;BME280;3204;42.698;23.298;2023-07-13T07:17:24;95221.38;;;29.31;52.89
6343;BME280;3204;42.698;23.298;2023-07-13T07:19:51;95223.97;;;29.45;52.92
6343;BME280;3204;42.698;23.298;2023-07-13T07:22:16;95227.84;;;29.51;52.31
6343;BME280;3204;42.698;23.298;2023-07-13T07:24:42;95221.03;;;29.52;52.11
6343;BME280;3204;42.698;23.298;2023-07-13T07:27:07;95224.66;;;29.76;51.78
6343;BME280;3204;42.698;23.298;2023-07-13T07:29:32;95227.84;;;30.01;51.15
6343;BME280;3204;42.698;23.298;2023-07-13T07:31:59;95229.94;;;30.20;51.15
6343;BME280;3204;42.698;23.298;2023-07-13T07:34:25;95210.66;;;30.45;49.92
6343;BME280;3204;42.698;23.298;2023-07-13T07:36:51;95219.03;;;30.68;49.98
6343;BME280;3204;42.698;23.298;2023-07-13T07:39:16;95207.03;;;30.87;49.24
6343;BME280;3204;42.698;23.298;2023-07-13T07:41:42;95205.28;;;30.93;48.97
6343;BME280;3204;42.698;23.298;2023-07-13T07:44:08;95211.88;;;30.63;49.52
6343;BME280;3204;42.698;23.298;2023-07-13T07:46:35;95209.13;;;30.83;49.00
6343;BME280;3204;42.698;23.298;2023-07-13T07:49:00;95205.50;;;31.02;48.87
6343;BME280;3204;42.698;23.298;2023-07-13T07:51:25;95209.09;;;31.02;48.75
6343;BME280;3204;42.698;23.298;2023-07-13T07:53:51;95199.53;;;31.00;49.42
6343;BME280;3204;42.698;23.298;2023-07-13T07:56:16;95196.44;;;31.14;48.70
6343;BME280;3204;42.698;23.298;2023-07-13T07:58:42;95199.66;;;31.48;47.79
6343;BME280;3204;42.698;23.298;2023-07-13T08:01:08;95193.31;;;31.79;47.62
6343;BME280;3204;42.698;23.298;2023-07-13T08:03:34;95189.00;;;31.91;47.29
6343;BME280;3204;42.698;23.298;2023-07-13T08:05:59;95192.50;;;31.47;47.36
6343;BME280;3204;42.698;23.298;2023-07-13T08:08:25;95178.28;;;31.38;48.95
6343;BME280;3204;42.698;23.298;2023-07-13T08:10:50;95175.47;;;31.70;47.33
6343;BME280;3204;42.698;23.298;2023-07-13T08:13:15;95178.47;;;31.95;47.96
6343;BME280;3204;42.698;23.298;2023-07-13T08:15:41;95179.50;;;31.53;46.78
6343;BME280;3204;42.698;23.298;2023-07-13T08:18:06;95182.13;;;31.44;47.17
6343;BME280;3204;42.698;23.298;2023-07-13T08:20:37;95172.66;;;31.70;46.44
6343;BME280;3204;42.698;23.298;2023-07-13T08:23:02;95172.69;;;31.86;46.25
6343;BME280;3204;42.698;23.298;2023-07-13T08:25:28;95163.56;;;31.82;45.78
6343;BME280;3204;42.698;23.298;2023-07-13T08:27:53;95162.94;;;32.06;45.39
6343;BME280;3204;42.698;23.298;2023-07-13T08:30:19;95160.97;;;32.35;45.29
6343;BME280;3204;42.698;23.298;2023-07-13T08:32:44;95166.09;;;32.53;45.58
6343;BME280;3204;42.698;23.298;2023-07-13T08:35:10;95164.69;;;32.73;45.54
6343;BME280;3204;42.698;23.298;2023-07-13T08:37:35;95166.91;;;33.07;44.92
6343;BME280;3204;42.698;23.298;2023-07-13T08:40:00;95160.88;;;33.33;44.83
6343;BME280;3204;42.698;23.298;2023-07-13T08:47:42;95162.09;;;33.57;44.86
6343;BME280;3204;42.698;23.298;2023-07-13T08:50:15;95166.50;;;33.83;43.82
6343;BME280;3204;42.698;23.298;2023-07-13T08:52:43;95159.31;;;33.70;43.80
6343;BME280;3204;42.698;23.298;2023-07-13T08:55:16;95162.34;;;33.50;43.97
6343;BME280;3204;42.698;23.298;2023-07-13T08:57:45;95162.91;;;33.58;44.36
6343;BME280;3204;42.698;23.298;2023-07-13T09:00:12;95173.25;;;33.73;43.02
6343;BME280;3204;42.698;23.298;2023-07-13T09:02:57;95187.19;;;34.02;42.21
6343;BME280;3204;42.698;23.298;2023-07-13T09:05:31;95188.75;;;34.15;42.26
6343;BME280;3204;42.698;23.298;2023-07-13T09:10:45;95189.06;;;34.30;42.00
6343;BME280;3204;42.698;23.298;2023-07-13T09:13:27;95200.44;;;34.26;42.18
6343;BME280;3204;42.698;23.298;2023-07-13T09:15:59;95193.34;;;34.22;42.01
6343;BME280;3204;42.698;23.298;2023-07-13T09:18:40;95193.59;;;34.15;42.80
6343;BME280;3204;42.698;23.298;2023-07-13T09:21:10;95184.69;;;34.16;42.11
6343;BME280;3204;42.698;23.298;2023-07-13T09:23:38;95195.53;;;33.93;44.52
6343;BME280;3204;42.698;23.298;2023-07-13T09:26:14;95183.41;;;33.83;44.07
6343;BME280;3204;42.698;23.298;2023-07-13T09:28:48;95192.53;;;33.87;44.09
6343;BME280;3204;42.698;23.298;2023-07-13T09:31:16;95193.38;;;34.09;43.55
6343;BME280;3204;42.698;23.298;2023-07-13T09:33:43;95183.16;;;34.03;44.22
6343;BME280;3204;42.698;23.298;2023-07-13T09:36:21;95185.63;;;34.01;43.26
6343;BME280;3204;42.698;23.298;2023-07-13T09:41:53;95176.13;;;34.54;43.12
6343;BME280;3204;42.698;23.298;2023-07-13T09:44:50;95168.94;;;34.96;43.39
6343;BME280;3204;42.698;23.298;2023-07-13T09:47:18;95170.63;;;35.15;42.48
6343;BME280;3204;42.698;23.298;2023-07-13T09:49:44;95160.19;;;35.55;40.89
6343;BME280;3204;42.698;23.298;2023-07-13T09:52:13;95154.81;;;35.88;40.58
6343;BME280;3204;42.698;23.298;2023-07-13T09:54:43;95152.16;;;36.02;40.31
6343;BME280;3204;42.698;23.298;2023-07-13T09:57:17;95158.06;;;35.77;40.36
6343;BME280;3204;42.698;23.298;2023-07-13T09:59:48;95153.31;;;35.65;40.81
6343;BME280;3204;42.698;23.298;2023-07-13T10:02:28;95148.53;;;35.83;35.90
6343;BME280;3204;42.698;23.298;2023-07-13T10:04:57;95152.56;;;36.22;33.08
6343;BME280;3204;42.698;23.298;2023-07-13T10:07:24;95148.78;;;36.52;32.53
6343;BME280;3204;42.698;23.298;2023-07-13T10:09:53;95138.75;;;36.78;33.09
6343;BME280;3204;42.698;23.298;2023-07-13T10:12:19;95139.16;;;37.04;32.61
6343;BME280;3204;42.698;23.298;2023-07-13T10:14:46;95136.97;;;37.17;31.54
6343;BME280;3204;42.698;23.298;2023-07-13T10:17:13;95148.41;;;37.31;31.39
6343;BME280;3204;42.698;23.298;2023-07-13T10:19:41;95155.72;;;37.47;31.55
6343;BME280;3204;42.698;23.298;2023-07-13T10:22:23;95152.56;;;37.63;31.05
6343;BME280;3204;42.698;23.298;2023-07-13T10:24:49;95146.31;;;37.82;31.06
6343;BME280;3204;42.698;23.298;2023-07-13T10:27:22;95142.56;;;37.76;30.67
6343;BME280;3204;42.698;23.298;2023-07-13T10:30:01;95145.03;;;37.92;30.62
6343;BME280;3204;42.698;23.298;2023-07-13T10:32:26;95139.47;;;37.98;30.91
6343;BME280;3204;42.698;23.298;2023-07-13T10:34:52;95120.28;;;37.93;30.21
6343;BME280;3204;42.698;23.298;2023-07-13T10:37:27;95137.72;;;38.00;30.31
6343;BME280;3204;42.698;23.298;2023-07-13T10:39:56;95124.91;;;38.14;30.70
6343;BME280;3204;42.698;23.298;2023-07-13T10:42:32;95127.03;;;38.42;30.88
6343;BME280;3204;42.698;23.298;2023-07-13T10:44:58;95124.28;;;38.57;30.15
6343;BME280;3204;42.698;23.298;2023-07-13T10:47:24;95124.88;;;38.61;29.83
6343;BME280;3204;42.698;23.298;2023-07-13T10:49:54;95114.50;;;38.72;29.32
6343;BME280;3204;42.698;23.298;2023-07-13T10:55:35;95106.44;;;38.94;27.87
6343;BME280;3204;42.698;23.298;2023-07-13T10:58:12;95114.19;;;39.08;27.62
6343;BME280;3204;42.698;23.298;2023-07-13T11:09:40;95091.16;;;38.92;28.50
6343;BME280;3204;42.698;23.298;2023-07-13T11:12:09;95079.50;;;38.75;28.83
6343;BME280;3204;42.698;23.298;2023-07-13T11:17:34;95077.34;;;38.85;27.96
6343;BME280;3204;42.698;23.298;2023-07-13T11:25:36;95081.66;;;39.38;28.21
6343;BME280;3204;42.698;23.298;2023-07-13T11:33:23;95076.47;;;39.71;28.39
6343;BME280;3204;42.698;23.298;2023-07-13T11:36:05;95068.72;;;39.52;29.04
6343;BME280;3204;42.698;23.298;2023-07-13T11:38:37;95071.22;;;39.15;29.62
6343;BME280;3204;42.698;23.298;2023-07-13T11:41:15;95069.34;;;38.98;29.71
6343;BME280;3204;42.698;23.298;2023-07-13T11:43:41;95061.97;;;38.77;29.99
6343;BME280;3204;42.698;23.298;2023-07-13T11:46:21;95065.34;;;38.90;30.42
6343;BME280;3204;42.698;23.298;2023-07-13T11:48:48;95062.00;;;39.06;29.73
6343;BME280;3204;42.698;23.298;2023-07-13T11:51:35;95056.59;;;39.22;29.33
6343;BME280;3204;42.698;23.298;2023-07-13T11:54:05;95049.06;;;39.34;30.23
6343;BME280;3204;42.698;23.298;2023-07-13T11:56:33;95044.66;;;39.33;29.82
6343;BME280;3204;42.698;23.298;2023-07-13T11:59:05;95043.25;;;39.28;29.66
6343;BME280;3204;42.698;23.298;2023-07-13T12:01:32;95045.59;;;39.30;29.54
6343;BME280;3204;42.698;23.298;2023-07-13T12:04:03;95039.13;;;39.44;29.39
6343;BME280;3204;42.698;23.298;2023-07-13T12:06:32;95035.81;;;39.45;30.31
6343;BME280;3204;42.698;23.298;2023-07-13T12:09:03;95036.78;;;39.42;29.59
6343;BME280;3204;42.698;23.298;2023-07-13T12:11:43;95037.63;;;39.14;29.28
6343;BME280;3204;42.698;23.298;2023-07-13T12:14:16;95037.03;;;38.95;29.88
6343;BME280;3204;42.698;23.298;2023-07-13T12:16:42;95027.72;;;38.80;28.77
6343;BME280;3204;42.698;23.298;2023-07-13T12:19:18;95020.59;;;38.85;28.98
6343;BME280;3204;42.698;23.298;2023-07-13T12:21:45;95009.00;;;38.30;30.04
6343;BME280;3204;42.698;23.298;2023-07-13T12:24:16;95011.50;;;38.14;30.72
6343;BME280;3204;42.698;23.298;2023-07-13T12:26:42;95009.97;;;38.27;30.90
6343;BME280;3204;42.698;23.298;2023-07-13T12:29:07;95001.97;;;38.40;30.00
6343;BME280;3204;42.698;23.298;2023-07-13T12:31:40;95001.41;;;38.65;29.62
6343;BME280;3204;42.698;23.298;2023-07-13T12:34:12;95010.50;;;38.84;29.35
6343;BME280;3204;42.698;23.298;2023-07-13T12:36:55;94999.06;;;38.93;29.73
6343;BME280;3204;42.698;23.298;2023-07-13T12:39:25;94989.66;;;39.01;28.75
6343;BME280;3204;42.698;23.298;2023-07-13T12:41:54;94986.91;;;39.07;28.83
6343;BME280;3204;42.698;23.298;2023-07-13T12:44:40;94996.13;;;39.02;28.68
6343;BME280;3204;42.698;23.298;2023-07-13T12:47:12;94983.09;;;39.10;28.96
6343;BME280;3204;42.698;23.298;2023-07-13T12:49:44;94986.38;;;39.23;28.76
6343;BME280;3204;42.698;23.298;2023-07-13T12:52:15;94984.91;;;39.27;29.61
6343;BME280;3204;42.698;23.298;2023-07-13T12:54:41;94985.66;;;39.42;28.87
6343;BME280;3204;42.698;23.298;2023-07-13T12:57:13;94977.13;;;39.42;29.05
6343;BME280;3204;42.698;23.298;2023-07-13T12:59:41;94973.63;;;38.98;27.86
6343;BME280;3204;42.698;23.298;2023-07-13T13:02:32;94973.53;;;38.78;28.84
6343;BME280;3204;42.698;23.298;2023-07-13T13:04:58;94967.75;;;38.87;28.81
6343;BME280;3204;42.698;23.298;2023-07-13T13:07:25;94970.41;;;38.91;28.71
6343;BME280;3204;42.698;23.298;2023-07-13T13:09:51;94959.72;;;38.86;28.86
6343;BME280;3204;42.698;23.298;2023-07-13T13:12:19;94961.78;;;38.71;28.79
6343;BME280;3204;42.698;23.298;2023-07-13T13:14:44;94949.94;;;38.72;29.40
6343;BME280;3204;42.698;23.298;2023-07-13T13:17:21;94959.81;;;38.62;28.75
6343;BME280;3204;42.698;23.298;2023-07-13T13:19:49;94954.84;;;38.57;28.42
6343;BME280;3204;42.698;23.298;2023-07-13T13:22:15;94949.97;;;38.58;29.26
6343;BME280;3204;42.698;23.298;2023-07-13T13:24:40;94937.69;;;38.23;29.78
6343;BME280;3204;42.698;23.298;2023-07-13T13:27:14;94943.97;;;38.12;29.47
6343;BME280;3204;42.698;23.298;2023-07-13T13:29:41;94943.28;;;38.17;29.57
6343;BME280;3204;42.698;23.298;2023-07-13T13:32:11;94942.50;;;38.31;29.55
6343;BME280;3204;42.698;23.298;2023-07-13T13:34:37;94937.78;;;38.28;29.41
6343;BME280;3204;42.698;23.298;2023-07-13T13:37:03;94943.28;;;38.32;29.36
6343;BME280;3204;42.698;23.298;2023-07-13T13:39:34;94940.00;;;38.48;29.11
6343;BME280;3204;42.698;23.298;2023-07-13T13:42:00;94930.19;;;38.63;28.58
6343;BME280;3204;42.698;23.298;2023-07-13T13:44:26;94933.50;;;38.76;29.33
6343;BME280;3204;42.698;23.298;2023-07-13T13:46:53;94941.31;;;38.81;29.36
6343;BME280;3204;42.698;23.298;2023-07-13T13:49:23;94937.88;;;38.77;28.78
6343;BME280;3204;42.698;23.298;2023-07-13T13:51:50;94939.69;;;38.60;28.91